Truckee Tahoe Airport
KTRK : rendu visible

Aérodrome :











RETROUVEZ-NOUS SUR...

 
LOGIN :

S'inscrire | Disclaimer

   EN    FR    IT 

 









Légende :    VFR   VFR Marginal   IFR   IFR Intensif   IFR Très Intensif
Visi : 
Plafond : 
>= 8 km
>= 3000ft
5 à 8 km
1000 à 3000 ft
1500m à 5 km
500 à 1000 ft
800 à 1500m
200 à 500 ft
< 800m
< 200 ft
Symboles :   Orages  Brouillard  Fortes neiges  Fortes précipitations  Vent > 20 kt






- Altitude de l'aérodrome : 5900 ft


KTRK - Truckee Tahoe

DERNIER METAR :
  • 190515Z AUTO 00000KT 10SM CLR M02/M07 A3009 RMK AO2

METARs EXPIRÉS :
  • 190455Z AUTO 00000KT 10SM CLR M02/M07 A3008 RMK AO2
  • 190435Z AUTO 00000KT 10SM CLR M02/M07 A3007 RMK AO2
  • 190415Z AUTO 19003KT 10SM CLR M02/M07 A3007 RMK AO2
  • 190355Z AUTO 00000KT 10SM CLR 00/M07 A3006 RMK AO2
  • 190335Z AUTO 12003KT 10SM CLR 00/M07 A3006 RMK AO2
  • 190315Z AUTO 12003KT 10SM CLR 00/M07 A3006 RMK AO2
  • 190255Z AUTO 23004KT 10SM CLR 00/M07 A3006 RMK AO2
  • 190235Z AUTO 20004KT 10SM CLR 00/M08 A3005 RMK AO2

TAF KTRK
Valide du 19 à 00h jusqu'au 20 à 00h UTC


182343Z 1900/1924 23006KT P6SM FEW150
FM190200 VRB03KT P6SM BKN150
FM192200 05005KT P6SM SCT180



MET'MAP, la Météo Aéronautique d'un coup d'oeil ! - Copyright ORBIFLY Décembre 2007 - Disclaimer

ORBIFLY MET'MAP TEAM :

Programmation & Développement : Alexandra Zaïnal
Sur une idée originale de : Baudouin d'Aumeries
Assistance à la programmation : Marc-Olivier Méhu
Soutien technique & logistique : Manuel Goepfert

Contact : metmap@orbifly.com




SOURCES & CREDITS :

   NOAA       Earth
Advisory